This demonstration page uses our WeatherBlox Daily Observations layout. Learn more.

Left ArrowRight Arrow

41.55636, -103.73856

Hourly Observations for June 20, 2015

Temp ( °F °C ) Dew Point ( °F °C ) Humidity (%) Winds ( mph kmh ) Pressure ( in mb ) Visibility ( mi km ) Precip ( " mm )
12:53 am 00:53 Clear 70 21.1 54 12.2 57 57 WNW 10 17 29.65 1004 10 16.0934 0 0
1:53 am 01:53 Clear 68 20 60 15.6 76 76 WNW 13 20 29.69 1005 10 16.0934 0 0
2:53 am 02:53 Mostly Clear 68 20 57 13.9 68 68 N 12 19 29.75 1007 10 16.0934 0 0
3:53 am 03:53 Clear 64 17.8 57 13.9 78 78 NW 10 17 29.79 1009 10 16.0934 0 0
4:53 am 04:53 Clear 62 16.7 57 13.9 84 84 WNW 9 15 29.8 1009 10 16.0934 0 0
5:53 am 05:53 Sunny 61 16.1 57 13.9 87 87 NW 7 11 29.82 1010 10 16.0934 0 0
6:53 am 06:53 Sunny 65 18.3 58 14.4 78 78 WNW 7 11 29.85 1011 10 16.0934 0 0
7:53 am 07:53 Sunny 67 19.4 58 14.4 73 73 WNW 10 17 29.87 1011 10 16.0934 0 0
8:53 am 08:53 Sunny 71 21.7 60 15.6 68 68 WNW 9 15 29.87 1012 10 16.0934 0 0
9:53 am 09:53 Sunny 74 23.3 61 16.1 64 64 W 8 13 29.86 1011 10 16.0934 0 0
10:53 am 10:53 Sunny 78 25.6 59 15 52 52 W 6 9 29.85 1011 10 16.0934 0 0
11:53 am 11:53 Sunny 82 27.8 58 14.4 44 44 VRB 3 6 29.84 1010 10 16.0934 0 0
12:53 pm 12:53 Sunny 83 28.3 56 13.3 40 40 NW 5 7 29.84 1011 10 16.0934 0 0
1:53 pm 13:53 Sunny 84 28.9 51 10.6 32 32 Calm 29.83 1010 10 16.0934 0 0
2:53 pm 14:53 Sunny 86 30 54 12.2 33 33 SE 7 11 29.81 1010 10 16.0934 0 0
3:53 pm 15:53 Sunny 85 29.4 56 13.3 37 37 SSE 9 15 29.81 1010 10 16.0934 0 0
4:53 pm 16:53 Sunny 85 29.4 54 12.2 35 35 SE 10 17 29.81 1009 10 16.0934 0 0
5:53 pm 17:53 Sunny 82 27.8 53 11.7 37 37 SE 10 17 29.8 1009 10 16.0934 0 0
6:53 pm 18:53 Sunny 82 27.8 55 12.8 40 40 SE 13 20 29.8 1009 10 16.0934 0 0
7:53 pm 19:53 Sunny 77 25 58 14.4 52 52 ESE 9 15 29.81 1009 10 16.0934 0 0
8:53 pm 20:53 Clear 75 23.9 57 13.9 54 54 ESE 10 17 29.8 1009 10 16.0934 0 0
11:53 pm 23:53 Clear 70 21.1 58 14.4 66 66 ESE 12 19 29.82 1010 10 16.0934 0 0

Powered by AerisWeather